createdAt,value
2023-04-15T00:01:12.285Z,1.60
2023-04-15T00:03:39.938Z,1.50
2023-04-15T00:06:07.836Z,1.67
2023-04-15T00:08:34.861Z,1.70
2023-04-15T00:11:05.755Z,1.80
2023-04-15T00:13:34.307Z,2.05
2023-04-15T00:16:01.786Z,1.60
2023-04-15T00:18:29.930Z,1.80
2023-04-15T00:20:57.185Z,2.00
2023-04-15T00:23:24.439Z,1.98
2023-04-15T00:25:52.096Z,2.05
2023-04-15T00:28:19.305Z,1.65
2023-04-15T00:30:46.529Z,2.03
2023-04-15T00:33:14.179Z,2.00
2023-04-15T00:35:41.580Z,1.83
2023-04-15T00:38:09.778Z,2.10
2023-04-15T00:40:37.799Z,1.98
2023-04-15T00:43:05.753Z,1.80
2023-04-15T00:45:33.586Z,1.73
2023-04-15T00:48:00.928Z,1.80
2023-04-15T00:50:28.154Z,2.20
2023-04-15T00:52:55.530Z,1.98
2023-04-15T00:55:22.727Z,2.13
2023-04-15T00:57:50.827Z,2.17
2023-04-15T01:00:18.274Z,2.33
2023-04-15T01:02:47.481Z,2.30
2023-04-15T01:05:17.459Z,2.55
2023-04-15T01:07:44.543Z,2.70
2023-04-15T01:10:11.979Z,3.30
2023-04-15T01:12:39.819Z,2.92
2023-04-15T01:15:08.277Z,2.95
2023-04-15T01:17:35.612Z,2.83
2023-04-15T01:20:03.176Z,3.15
2023-04-15T01:22:31.770Z,3.00
2023-04-15T01:25:09.853Z,3.03
2023-04-15T01:27:42.521Z,2.70
2023-04-15T01:30:10.766Z,2.72
2023-04-15T01:32:38.301Z,3.13
2023-04-15T01:35:24.508Z,2.80
2023-04-15T01:37:52.670Z,2.80
2023-04-15T01:40:21.524Z,3.08
2023-04-15T01:42:49.943Z,3.30
2023-04-15T01:45:18.410Z,3.20
2023-04-15T01:47:46.671Z,3.45
2023-04-15T01:50:15.615Z,3.53
2023-04-15T01:52:43.940Z,3.20
2023-04-15T01:55:12.634Z,3.78
2023-04-15T01:57:41.511Z,3.67
2023-04-15T02:00:10.208Z,3.88
2023-04-15T02:02:44.929Z,4.65
2023-04-15T02:05:13.435Z,4.35
2023-04-15T02:07:43.732Z,4.95
2023-04-15T02:10:13.712Z,5.30
2023-04-15T02:12:42.232Z,4.88
2023-04-15T02:15:10.921Z,5.22
2023-04-15T02:17:39.355Z,5.05
2023-04-15T02:20:10.827Z,5.30
2023-04-15T02:22:39.039Z,4.97
2023-04-15T02:25:09.302Z,5.10
2023-04-15T02:27:38.346Z,4.97
2023-04-15T02:30:07.544Z,5.13
2023-04-15T02:32:38.274Z,5.25
2023-04-15T02:35:09.034Z,5.65
2023-04-15T02:37:43.821Z,5.25
2023-04-15T02:40:13.566Z,5.28
2023-04-15T02:42:42.791Z,5.38
2023-04-15T02:45:13.989Z,5.30
2023-04-15T02:47:44.046Z,5.07
2023-04-15T02:50:13.680Z,5.38
2023-04-15T02:52:44.583Z,5.40
2023-04-15T02:55:13.485Z,5.70
2023-04-15T02:57:41.978Z,5.32
2023-04-15T03:00:12.483Z,5.60
2023-04-15T03:02:46.988Z,5.18
2023-04-15T03:05:15.682Z,5.25
2023-04-15T03:07:50.410Z,5.43
2023-04-15T03:10:19.682Z,5.30
2023-04-15T03:12:48.876Z,5.32
2023-04-15T03:15:22.635Z,5.28
2023-04-15T03:17:53.682Z,5.07
2023-04-15T03:20:22.096Z,5.30
2023-04-15T03:22:50.756Z,5.32
2023-04-15T03:25:21.115Z,5.05
2023-04-15T03:27:49.405Z,5.40
2023-04-15T03:30:18.513Z,5.45
2023-04-15T03:32:47.498Z,5.65
2023-04-15T03:35:16.528Z,5.75
2023-04-15T03:37:44.871Z,5.60
2023-04-15T03:40:13.369Z,5.53
2023-04-15T03:42:41.657Z,6.00
2023-04-15T03:45:10.431Z,6.15
2023-04-15T03:47:38.857Z,6.22
2023-04-15T03:50:07.692Z,6.30
2023-04-15T03:52:36.001Z,6.78
2023-04-15T03:55:04.519Z,6.75
2023-04-15T03:57:33.513Z,6.85
2023-04-15T04:00:01.737Z,6.30
2023-04-15T04:02:40.284Z,6.90
2023-04-15T04:05:09.309Z,6.50
2023-04-15T04:07:37.610Z,6.65
2023-04-15T04:10:06.626Z,6.50
2023-04-15T04:12:34.779Z,6.50
2023-04-15T04:15:03.293Z,6.45
2023-04-15T04:17:31.661Z,6.30
2023-04-15T04:20:00.007Z,6.50
2023-04-15T04:22:28.505Z,6.45
2023-04-15T04:24:57.155Z,6.40
2023-04-15T04:27:26.375Z,6.60
2023-04-15T04:29:54.830Z,6.68
2023-04-15T04:32:23.057Z,6.60
2023-04-15T04:34:51.520Z,6.57
2023-04-15T04:37:19.827Z,6.50
2023-04-15T04:39:48.120Z,6.43
2023-04-15T04:42:16.898Z,6.45
2023-04-15T04:44:45.255Z,6.80
2023-04-15T04:47:14.202Z,7.13
2023-04-15T04:49:42.441Z,7.10
2023-04-15T04:52:11.807Z,6.72
2023-04-15T04:54:40.089Z,6.60
2023-04-15T04:57:08.443Z,7.13
2023-04-15T04:59:36.741Z,6.85
2023-04-15T05:02:05.495Z,7.20
2023-04-15T05:04:34.534Z,7.53
2023-04-15T05:07:02.850Z,8.43
2023-04-15T05:09:32.684Z,8.65
2023-04-15T05:12:01.530Z,8.25
2023-04-15T05:14:29.976Z,8.13
2023-04-15T05:16:58.550Z,9.02
2023-04-15T05:19:27.265Z,8.70
2023-04-15T05:21:55.706Z,8.95
2023-04-15T05:24:24.153Z,8.25
2023-04-15T05:26:52.476Z,8.05
2023-04-15T05:29:21.000Z,9.00
2023-04-15T05:31:49.914Z,8.13
2023-04-15T05:34:18.228Z,7.53
2023-04-15T05:36:46.504Z,7.53
2023-04-15T05:39:14.794Z,7.20
2023-04-15T05:41:43.096Z,7.10
2023-04-15T05:44:11.777Z,7.20
2023-04-15T05:46:40.191Z,6.82
2023-04-15T05:49:08.574Z,7.22
2023-04-15T05:51:37.184Z,6.47
2023-04-15T05:54:05.985Z,6.80
2023-04-15T05:56:34.287Z,6.10
2023-04-15T05:59:02.648Z,7.72
2023-04-15T06:01:31.275Z,7.68
2023-04-15T06:03:59.500Z,6.90
2023-04-15T06:06:27.916Z,7.68
2023-04-15T06:08:56.192Z,8.18
2023-04-15T06:11:25.394Z,7.93
2023-04-15T06:13:53.615Z,7.63
2023-04-15T06:16:23.833Z,7.05
2023-04-15T06:18:52.158Z,7.28
2023-04-15T06:21:20.667Z,7.53
2023-04-15T06:23:48.983Z,7.03
2023-04-15T06:26:17.334Z,7.43
2023-04-15T06:28:46.042Z,7.95
2023-04-15T06:31:14.834Z,7.15
2023-04-15T06:33:43.125Z,7.97
2023-04-15T06:36:11.458Z,7.80
2023-04-15T06:38:39.884Z,7.63
2023-04-15T06:41:08.328Z,7.57
2023-04-15T06:43:36.729Z,7.40
2023-04-15T06:46:05.278Z,7.10
2023-04-15T06:48:33.528Z,7.55
2023-04-15T06:51:02.000Z,7.30
2023-04-15T06:53:30.390Z,6.70
2023-04-15T06:55:58.623Z,8.00
2023-04-15T06:58:26.978Z,7.22
2023-04-15T07:00:55.394Z,7.43
2023-04-15T07:03:23.676Z,7.38
2023-04-15T07:05:52.165Z,8.00
2023-04-15T07:08:21.419Z,7.90
2023-04-15T07:10:49.762Z,7.90
2023-04-15T07:13:17.956Z,8.30
2023-04-15T07:15:46.588Z,8.32
2023-04-15T07:18:14.857Z,8.43
2023-04-15T07:20:43.767Z,8.10
2023-04-15T07:23:12.246Z,8.13
2023-04-15T07:25:41.295Z,8.15
2023-04-15T07:28:09.512Z,7.82
2023-04-15T07:30:38.489Z,8.20
2023-04-15T07:33:07.314Z,8.63
2023-04-15T07:35:35.742Z,9.18
2023-04-15T07:38:04.173Z,9.75
2023-04-15T07:40:33.281Z,7.80
2023-04-15T07:43:01.830Z,7.28
2023-04-15T07:45:30.439Z,7.70
2023-04-15T07:47:58.791Z,7.60
2023-04-15T07:50:28.762Z,7.82
2023-04-15T07:52:57.466Z,7.72
2023-04-15T07:55:27.204Z,7.40
2023-04-15T07:57:57.346Z,7.93
2023-04-15T08:00:26.962Z,7.53
2023-04-15T08:02:57.649Z,7.68
2023-04-15T08:05:26.568Z,7.45
2023-04-15T08:07:54.966Z,7.03
2023-04-15T08:10:23.499Z,7.60
2023-04-15T08:12:54.403Z,6.68
2023-04-15T08:15:22.694Z,7.43
2023-04-15T08:17:51.304Z,7.85
2023-04-15T08:20:19.942Z,8.52
2023-04-15T08:22:52.756Z,8.13
2023-04-15T08:25:21.488Z,7.57
2023-04-15T08:27:49.869Z,7.22
2023-04-15T08:30:18.817Z,7.00
2023-04-15T08:32:47.643Z,6.90
2023-04-15T08:35:16.450Z,6.70
2023-04-15T08:37:44.737Z,7.05
2023-04-15T08:40:13.757Z,6.22
2023-04-15T08:42:45.896Z,6.80
2023-04-15T08:45:14.665Z,7.05
2023-04-15T08:47:44.800Z,8.52
2023-04-15T08:50:15.433Z,7.80
2023-04-15T08:52:43.884Z,8.60
2023-04-15T08:55:13.817Z,9.43
2023-04-15T08:57:42.146Z,9.43
2023-04-15T09:00:11.095Z,7.28
2023-04-15T09:02:39.878Z,6.95
2023-04-15T09:05:08.832Z,6.70
2023-04-15T09:07:37.404Z,5.30
2023-04-15T09:10:06.739Z,5.72
2023-04-15T09:12:38.263Z,5.88
2023-04-15T09:15:08.977Z,5.28
2023-04-15T09:17:43.970Z,5.10
2023-04-15T09:22:43.902Z,5.38
2023-04-15T09:25:28.048Z,4.88
2023-04-15T09:28:02.011Z,5.60
2023-04-15T09:30:30.651Z,5.53
2023-04-15T09:33:04.238Z,5.38
2023-04-15T09:35:32.600Z,5.40
2023-04-15T09:38:04.186Z,5.65
2023-04-15T09:40:36.409Z,5.47
2023-04-15T09:43:06.248Z,5.85
2023-04-15T09:45:36.014Z,6.40
2023-04-15T09:48:27.170Z,6.28
2023-04-15T09:50:59.359Z,6.15
2023-04-15T09:53:29.839Z,6.75
2023-04-15T09:56:02.640Z,5.50
2023-04-15T09:58:33.708Z,5.70
2023-04-15T10:01:05.136Z,5.63
2023-04-15T10:03:39.390Z,5.65
2023-04-15T10:06:08.248Z,5.82
2023-04-15T10:08:36.594Z,5.35
2023-04-15T10:11:06.280Z,5.28
2023-04-15T10:13:36.566Z,5.22
2023-04-15T10:16:07.167Z,5.57
2023-04-15T10:18:38.434Z,5.15
2023-04-15T10:21:08.868Z,4.80
2023-04-15T10:23:38.725Z,5.60
2023-04-15T10:26:08.547Z,5.75
2023-04-15T10:28:37.220Z,5.95
2023-04-15T10:31:07.392Z,6.38
2023-04-15T10:33:36.398Z,6.35
2023-04-15T10:36:05.330Z,5.35
2023-04-15T10:38:38.281Z,5.78
2023-04-15T10:41:18.740Z,8.35
2023-04-15T10:43:56.242Z,9.30
2023-04-15T10:46:37.775Z,8.32
2023-04-15T10:49:24.489Z,8.68
2023-04-15T10:51:58.220Z,7.28
2023-04-15T10:54:26.415Z,6.35
2023-04-15T10:57:01.891Z,5.45
2023-04-15T10:59:51.082Z,4.68
2023-04-15T11:02:19.654Z,6.05
2023-04-15T11:04:58.818Z,6.10
2023-04-15T11:07:35.148Z,5.95
2023-04-15T11:10:25.663Z,5.30
2023-04-15T11:12:58.220Z,4.70
2023-04-15T11:15:33.269Z,4.93
2023-04-15T11:18:13.567Z,4.05
2023-04-15T11:20:47.335Z,4.20
2023-04-15T11:23:28.957Z,4.55
2023-04-15T11:25:58.200Z,4.63
2023-04-15T11:28:30.994Z,4.30
2023-04-15T11:31:06.056Z,4.80
2023-04-15T11:33:34.561Z,4.57
2023-04-15T11:36:04.324Z,4.10
2023-04-15T11:38:34.517Z,4.60
2023-04-15T11:41:02.811Z,4.40
2023-04-15T11:43:32.637Z,4.53
2023-04-15T11:46:02.561Z,3.80
2023-04-15T11:48:34.351Z,3.72
2023-04-15T11:51:08.159Z,3.70
2023-04-15T11:53:47.400Z,3.70
2023-04-15T11:56:26.476Z,3.90
2023-04-15T11:59:00.929Z,3.70
2023-04-15T12:01:36.959Z,4.20
2023-04-15T12:04:15.883Z,4.18
2023-04-15T12:06:43.618Z,4.40
2023-04-15T12:09:15.551Z,4.28
2023-04-15T12:11:48.401Z,4.47
2023-04-15T12:14:32.650Z,4.30
2023-04-15T12:17:02.984Z,4.38
2023-04-15T12:19:39.671Z,4.85
2023-04-15T12:22:13.046Z,4.10
2023-04-15T12:24:41.449Z,4.20
2023-04-15T12:27:11.542Z,4.30
2023-04-15T12:29:40.931Z,4.43
2023-04-15T12:32:13.000Z,4.43
2023-04-15T12:34:42.644Z,4.13
2023-04-15T12:37:11.993Z,4.65
2023-04-15T12:39:41.636Z,4.45
2023-04-15T12:42:09.733Z,4.60
2023-04-15T12:44:37.717Z,4.80
2023-04-15T12:47:05.526Z,4.80
2023-04-15T12:49:34.547Z,4.53
2023-04-15T12:52:02.935Z,5.25
2023-04-15T12:54:31.880Z,5.10
2023-04-15T12:56:59.767Z,4.63
2023-04-15T12:59:27.260Z,5.20
2023-04-15T13:01:55.656Z,4.78
2023-04-15T13:04:23.440Z,4.90
2023-04-15T13:06:50.899Z,5.28
2023-04-15T13:09:18.160Z,6.03
2023-04-15T13:11:45.468Z,5.05
2023-04-15T13:14:14.083Z,5.50
2023-04-15T13:16:41.707Z,5.57
2023-04-15T13:19:09.146Z,5.60
2023-04-15T13:21:38.549Z,5.50
2023-04-15T13:24:07.480Z,5.35
2023-04-15T13:26:35.158Z,5.00
2023-04-15T13:29:02.359Z,6.15
2023-04-15T13:31:29.596Z,5.32
2023-04-15T13:33:57.930Z,5.93
2023-04-15T13:36:25.306Z,5.93
2023-04-15T13:38:52.429Z,5.70
2023-04-15T13:41:21.411Z,5.80
2023-04-15T13:43:48.591Z,6.03
2023-04-15T13:46:16.334Z,6.05
2023-04-15T13:48:43.741Z,6.03
2023-04-15T13:51:11.156Z,6.05
2023-04-15T13:53:39.600Z,6.40
2023-04-15T13:56:11.013Z,6.15
2023-04-15T13:58:38.454Z,6.28
2023-04-15T14:01:07.030Z,5.43
2023-04-15T14:03:36.945Z,5.47
2023-04-15T14:06:05.745Z,5.53
2023-04-15T14:08:33.497Z,5.43
2023-04-15T14:11:00.904Z,5.78
2023-04-15T14:13:28.179Z,5.78
2023-04-15T14:15:55.589Z,5.80
2023-04-15T14:18:23.066Z,5.60
2023-04-15T14:20:50.193Z,5.80
2023-04-15T14:23:17.264Z,5.90
2023-04-15T14:25:46.711Z,5.20
2023-04-15T14:28:15.947Z,5.72
2023-04-15T14:30:43.276Z,6.10
2023-04-15T14:33:10.807Z,6.25
2023-04-15T14:35:38.224Z,5.50
2023-04-15T14:38:06.268Z,5.68
2023-04-15T14:40:34.106Z,5.70
2023-04-15T14:43:01.377Z,5.25
2023-04-15T14:45:28.708Z,6.03
2023-04-15T14:47:56.299Z,5.05
2023-04-15T14:50:23.506Z,4.82
2023-04-15T14:52:50.635Z,6.05
2023-04-15T14:55:17.996Z,5.85
2023-04-15T14:57:45.081Z,5.55
2023-04-15T15:00:15.799Z,5.57
2023-04-15T15:02:44.012Z,5.75
2023-04-15T15:05:12.225Z,5.35
2023-04-15T15:07:43.103Z,5.90
2023-04-15T15:10:10.635Z,5.35
2023-04-15T15:12:37.773Z,5.97
2023-04-15T15:15:15.814Z,5.70
2023-04-15T15:17:54.450Z,5.82
2023-04-15T15:20:22.087Z,4.85
2023-04-15T15:22:49.540Z,5.75
2023-04-15T15:25:16.800Z,5.40
2023-04-15T15:27:44.373Z,4.88
2023-04-15T15:30:12.861Z,4.80
2023-04-15T15:32:41.165Z,4.97
2023-04-15T15:35:10.231Z,5.90
2023-04-15T15:37:38.225Z,5.10
2023-04-15T15:40:06.057Z,5.72
2023-04-15T15:42:33.892Z,5.30
2023-04-15T15:45:01.301Z,6.28
2023-04-15T15:47:28.458Z,5.80
2023-04-15T15:49:55.723Z,5.55
2023-04-15T15:52:22.882Z,5.20
2023-04-15T15:54:50.194Z,5.63
2023-04-15T15:57:17.289Z,5.43
2023-04-15T15:59:44.833Z,5.38
2023-04-15T16:02:14.140Z,5.68
2023-04-15T16:04:43.351Z,5.40
2023-04-15T16:07:11.847Z,5.20
2023-04-15T16:09:41.109Z,5.03
2023-04-15T16:12:08.591Z,4.68
2023-04-15T16:14:36.558Z,5.20
2023-04-15T16:17:03.736Z,4.93
2023-04-15T16:19:31.249Z,5.60
2023-04-15T16:22:00.174Z,5.57
2023-04-15T16:24:28.393Z,5.00
2023-04-15T16:26:58.771Z,4.47
2023-04-15T16:29:26.628Z,4.95
2023-04-15T16:31:55.116Z,5.00
2023-04-15T16:34:22.170Z,4.60
2023-04-15T16:36:49.465Z,4.90
2023-04-15T16:39:17.131Z,4.80
2023-04-15T16:41:44.228Z,4.88
2023-04-15T16:44:11.336Z,4.85
2023-04-15T16:46:40.764Z,4.75
2023-04-15T16:49:08.170Z,4.82
2023-04-15T16:51:35.437Z,4.72
2023-04-15T16:54:02.559Z,4.80
2023-04-15T16:56:29.729Z,5.00
2023-04-15T16:58:56.890Z,4.40
2023-04-15T17:01:24.064Z,5.40
2023-04-15T17:03:54.026Z,5.10
2023-04-15T17:06:22.599Z,5.00
2023-04-15T17:08:49.793Z,4.63
2023-04-15T17:11:19.641Z,4.68
2023-04-15T17:13:49.106Z,4.55
2023-04-15T17:16:16.627Z,4.38
2023-04-15T17:18:47.608Z,4.57
2023-04-15T17:21:26.305Z,4.93
2023-04-15T17:23:59.758Z,4.80
2023-04-15T17:26:37.171Z,4.80
2023-04-15T17:29:06.131Z,4.57
2023-04-15T17:31:43.801Z,4.32
2023-04-15T17:34:50.240Z,4.32
2023-04-15T17:37:38.099Z,4.50
2023-04-15T17:40:25.094Z,4.55
2023-04-15T17:43:12.087Z,4.65
2023-04-15T17:45:59.658Z,5.55
2023-04-15T17:48:47.519Z,8.35
2023-04-15T17:51:34.462Z,5.80
2023-04-15T17:54:27.566Z,5.57
2023-04-15T17:57:15.039Z,5.13
2023-04-15T18:00:02.430Z,5.30
2023-04-15T18:02:59.530Z,4.80
2023-04-15T18:05:47.108Z,5.32
2023-04-15T18:08:34.267Z,5.10
2023-04-15T18:11:21.331Z,5.13
2023-04-15T18:14:08.343Z,5.18
2023-04-15T18:16:55.547Z,6.10
2023-04-15T18:19:43.701Z,8.07
2023-04-15T18:22:15.791Z,5.60
2023-04-15T18:24:43.135Z,6.38
2023-04-15T18:27:10.605Z,5.93
2023-04-15T18:29:37.942Z,7.38
2023-04-15T18:32:05.430Z,6.40
2023-04-15T18:34:33.664Z,5.32
2023-04-15T18:37:01.574Z,5.80
2023-04-15T18:39:29.476Z,6.13
2023-04-15T18:41:59.638Z,6.03
2023-04-15T18:44:26.942Z,5.78
2023-04-15T18:46:54.436Z,5.07
2023-04-15T18:49:21.786Z,5.93
2023-04-15T18:51:48.928Z,5.93
2023-04-15T18:54:16.191Z,5.70
2023-04-15T18:56:43.350Z,5.50
2023-04-15T18:59:28.526Z,5.47
2023-04-15T19:01:59.909Z,5.40
2023-04-15T19:04:29.341Z,5.32
2023-04-15T19:06:57.131Z,5.00
2023-04-15T19:09:24.303Z,5.90
2023-04-15T19:11:51.459Z,5.53
2023-04-15T19:14:18.709Z,5.47
2023-04-15T19:16:46.802Z,5.40
2023-04-15T19:19:17.333Z,4.95
2023-04-15T19:21:46.793Z,5.63
2023-04-15T19:24:14.265Z,5.30
2023-04-15T19:26:41.333Z,5.45
2023-04-15T19:29:08.593Z,5.75
2023-04-15T19:31:35.785Z,5.40
2023-04-15T19:34:02.840Z,4.95
2023-04-15T19:36:30.577Z,5.30
2023-04-15T19:38:59.204Z,5.35
2023-04-15T19:41:26.755Z,5.50
2023-04-15T19:43:53.875Z,5.78
2023-04-15T19:46:21.498Z,5.05
2023-04-15T19:48:48.631Z,5.20
2023-04-15T19:51:15.980Z,5.20
2023-04-15T19:53:43.708Z,12.05
2023-04-15T19:56:11.091Z,6.35
2023-04-15T19:58:38.566Z,6.88
2023-04-15T20:01:05.920Z,8.50
2023-04-15T20:03:33.292Z,6.63
2023-04-15T20:06:00.758Z,6.78
2023-04-15T20:08:27.963Z,6.43
2023-04-15T20:10:55.332Z,5.60
2023-04-15T20:13:22.337Z,5.50
2023-04-15T20:15:50.233Z,5.65
2023-04-15T20:18:17.863Z,5.68
2023-04-15T20:20:45.052Z,6.25
2023-04-15T20:23:12.387Z,5.57
2023-04-15T20:25:39.709Z,5.85
2023-04-15T20:28:06.868Z,5.82
2023-04-15T20:30:34.352Z,5.80
2023-04-15T20:33:01.760Z,7.15
2023-04-15T20:35:31.187Z,6.05
2023-04-15T20:37:59.889Z,6.43
2023-04-15T20:40:27.059Z,5.15
2023-04-15T20:42:54.466Z,5.03
2023-04-15T20:45:22.270Z,5.03
2023-04-15T20:47:49.591Z,5.38
2023-04-15T20:50:16.710Z,4.93
2023-04-15T20:52:43.822Z,5.35
2023-04-15T20:55:11.060Z,5.03
2023-04-15T20:57:38.256Z,5.35
2023-04-15T21:00:06.292Z,8.02
2023-04-15T21:02:37.092Z,5.55
2023-04-15T21:05:04.596Z,5.10
2023-04-15T21:07:31.910Z,5.78
2023-04-15T21:09:59.183Z,5.90
2023-04-15T21:12:26.441Z,5.47
2023-04-15T21:14:53.575Z,5.00
2023-04-15T21:17:22.789Z,4.90
2023-04-15T21:19:51.072Z,4.70
2023-04-15T21:22:18.481Z,4.85
2023-04-15T21:24:45.590Z,5.25
2023-04-15T21:27:12.642Z,4.75
2023-04-15T21:29:40.608Z,4.93
2023-04-15T21:32:07.966Z,5.05
2023-04-15T21:34:35.137Z,4.60
2023-04-15T21:37:02.482Z,4.85
2023-04-15T21:39:29.651Z,5.20
2023-04-15T21:41:58.009Z,5.15
2023-04-15T21:44:26.181Z,7.18
2023-04-15T21:46:53.393Z,5.65
2023-04-15T21:49:20.794Z,7.60
2023-04-15T21:51:48.414Z,5.47
2023-04-15T21:54:15.808Z,5.45
2023-04-15T21:56:43.214Z,6.13
2023-04-15T21:59:11.222Z,4.70
2023-04-15T22:01:38.473Z,5.07
2023-04-15T22:04:07.555Z,5.55
2023-04-15T22:06:35.058Z,4.97
2023-04-15T22:09:02.192Z,4.97
2023-04-15T22:11:30.953Z,4.70
2023-04-15T22:13:59.470Z,4.95
2023-04-15T22:16:27.328Z,4.93
2023-04-15T22:18:55.396Z,5.30
2023-04-15T22:21:22.936Z,4.70
2023-04-15T22:23:51.257Z,4.47
2023-04-15T22:26:19.001Z,5.53
2023-04-15T22:28:46.100Z,4.50
2023-04-15T22:31:14.976Z,4.53
2023-04-15T22:33:42.157Z,4.82
2023-04-15T22:36:09.622Z,5.35
2023-04-15T22:38:36.926Z,4.47
2023-04-15T22:41:04.051Z,5.05
2023-04-15T22:43:31.126Z,4.63
2023-04-15T22:45:58.380Z,5.03
2023-04-15T22:48:25.637Z,5.40
2023-04-15T22:50:53.084Z,4.80
2023-04-15T22:53:20.246Z,5.25
2023-04-15T22:55:48.464Z,5.13
2023-04-15T22:58:17.264Z,5.47
2023-04-15T23:00:46.234Z,4.90
2023-04-15T23:03:13.606Z,4.50
2023-04-15T23:05:41.366Z,5.05
2023-04-15T23:08:08.758Z,5.78
2023-04-15T23:10:36.312Z,5.20
2023-04-15T23:13:03.610Z,5.95
2023-04-15T23:15:30.937Z,5.45
2023-04-15T23:17:58.195Z,4.47
2023-04-15T23:20:25.428Z,5.03
2023-04-15T23:22:52.558Z,5.80
2023-04-15T23:25:22.488Z,5.15
2023-04-15T23:27:49.748Z,4.80
2023-04-15T23:30:16.928Z,4.63
2023-04-15T23:32:44.098Z,4.60
2023-04-15T23:35:11.384Z,4.20
2023-04-15T23:37:38.586Z,4.65
2023-04-15T23:40:06.869Z,4.70
2023-04-15T23:42:34.057Z,4.70
2023-04-15T23:45:01.308Z,4.50
2023-04-15T23:47:30.812Z,5.32
2023-04-15T23:49:57.983Z,4.80
2023-04-15T23:52:25.205Z,4.88
2023-04-15T23:54:52.412Z,5.78
2023-04-15T23:57:19.575Z,5.00
2023-04-15T23:59:46.808Z,5.07
